sensor_id;sensor_type;location;lat;lon;timestamp;pressure;altitude;pressure_sealevel;temperature;humidity
56330;BME280;42236;48.058;10.632;2023-04-25T00:02:24;94114.38;;;5.81;82.61
56330;BME280;42236;48.058;10.632;2023-04-25T00:05:10;94102.13;;;5.80;82.59
56330;BME280;42236;48.058;10.632;2023-04-25T00:07:56;94104.94;;;5.75;82.78
56330;BME280;42236;48.058;10.632;2023-04-25T00:10:42;94098.69;;;5.71;83.62
56330;BME280;42236;48.058;10.632;2023-04-25T00:13:28;94103.78;;;5.64;83.77
56330;BME280;42236;48.058;10.632;2023-04-25T00:16:14;94100.63;;;5.62;83.44
56330;BME280;42236;48.058;10.632;2023-04-25T00:19:01;94106.63;;;5.59;83.04
56330;BME280;42236;48.058;10.632;2023-04-25T00:21:48;94109.94;;;5.55;83.39
56330;BME280;42236;48.058;10.632;2023-04-25T00:24:34;94102.53;;;5.52;83.23
56330;BME280;42236;48.058;10.632;2023-04-25T00:27:20;94103.19;;;5.49;83.76
56330;BME280;42236;48.058;10.632;2023-04-25T00:30:06;94101.59;;;5.48;83.56
56330;BME280;42236;48.058;10.632;2023-04-25T00:32:51;94086.69;;;5.47;83.80
56330;BME280;42236;48.058;10.632;2023-04-25T00:35:37;94090.00;;;5.44;83.53
56330;BME280;42236;48.058;10.632;2023-04-25T00:38:23;94090.63;;;5.41;83.45
56330;BME280;42236;48.058;10.632;2023-04-25T00:41:09;94086.25;;;5.37;83.65
56330;BME280;42236;48.058;10.632;2023-04-25T00:43:55;94088.78;;;5.33;83.34
56330;BME280;42236;48.058;10.632;2023-04-25T00:46:42;94082.97;;;5.31;83.33
56330;BME280;42236;48.058;10.632;2023-04-25T00:49:28;94084.06;;;5.30;83.16
56330;BME280;42236;48.058;10.632;2023-04-25T00:52:13;94075.59;;;5.28;83.16
56330;BME280;42236;48.058;10.632;2023-04-25T00:54:59;94067.09;;;5.26;83.40
56330;BME280;42236;48.058;10.632;2023-04-25T00:57:45;94063.94;;;5.24;83.63
56330;BME280;42236;48.058;10.632;2023-04-25T01:00:30;94066.97;;;5.22;83.26
56330;BME280;42236;48.058;10.632;2023-04-25T01:03:17;94071.50;;;5.22;83.15
56330;BME280;42236;48.058;10.632;2023-04-25T01:06:05;94068.53;;;5.23;83.20
56330;BME280;42236;48.058;10.632;2023-04-25T01:08:51;94063.94;;;5.24;83.42
56330;BME280;42236;48.058;10.632;2023-04-25T01:11:37;94065.66;;;5.28;83.18
56330;BME280;42236;48.058;10.632;2023-04-25T01:14:23;94057.00;;;5.31;83.38
56330;BME280;42236;48.058;10.632;2023-04-25T01:17:09;94059.19;;;5.38;83.32
56330;BME280;42236;48.058;10.632;2023-04-25T01:19:55;94051.63;;;5.40;83.28
56330;BME280;42236;48.058;10.632;2023-04-25T01:22:41;94056.00;;;5.45;83.26
56330;BME280;42236;48.058;10.632;2023-04-25T01:25:27;94064.63;;;5.50;83.22
56330;BME280;42236;48.058;10.632;2023-04-25T01:28:13;94057.66;;;5.58;83.44
56330;BME280;42236;48.058;10.632;2023-04-25T01:30:59;94064.56;;;5.68;83.54
56330;BME280;42236;48.058;10.632;2023-04-25T01:33:45;94060.84;;;5.81;83.11
56330;BME280;42236;48.058;10.632;2023-04-25T01:36:31;94064.72;;;5.92;82.56
56330;BME280;42236;48.058;10.632;2023-04-25T01:39:17;94068.47;;;6.00;82.62
56330;BME280;42236;48.058;10.632;2023-04-25T01:42:03;94069.53;;;6.08;82.96
56330;BME280;42236;48.058;10.632;2023-04-25T01:44:49;94064.31;;;6.11;83.50
56330;BME280;42236;48.058;10.632;2023-04-25T01:47:35;94071.97;;;6.22;82.00
56330;BME280;42236;48.058;10.632;2023-04-25T01:50:21;94065.75;;;6.30;81.19
56330;BME280;42236;48.058;10.632;2023-04-25T01:53:09;94093.78;;;6.32;80.21
56330;BME280;42236;48.058;10.632;2023-04-25T01:55:55;94121.03;;;6.34;79.86
56330;BME280;42236;48.058;10.632;2023-04-25T01:58:40;94126.97;;;6.19;82.80
56330;BME280;42236;48.058;10.632;2023-04-25T02:01:26;94116.81;;;5.65;86.17
56330;BME280;42236;48.058;10.632;2023-04-25T02:04:12;94105.66;;;5.25;87.42
56330;BME280;42236;48.058;10.632;2023-04-25T02:06:58;94092.50;;;4.94;90.09
56330;BME280;42236;48.058;10.632;2023-04-25T02:09:44;94080.13;;;4.72;92.93
56330;BME280;42236;48.058;10.632;2023-04-25T02:12:30;94070.88;;;4.69;92.98
56330;BME280;42236;48.058;10.632;2023-04-25T02:15:16;94082.34;;;4.69;91.72
56330;BME280;42236;48.058;10.632;2023-04-25T02:18:02;94076.81;;;4.66;91.01
56330;BME280;42236;48.058;10.632;2023-04-25T02:20:48;94082.97;;;4.66;91.39
56330;BME280;42236;48.058;10.632;2023-04-25T02:23:33;94084.38;;;4.73;91.11
56330;BME280;42236;48.058;10.632;2023-04-25T02:26:19;94081.06;;;4.76;90.98
56330;BME280;42236;48.058;10.632;2023-04-25T02:29:05;94075.25;;;4.74;90.24
56330;BME280;42236;48.058;10.632;2023-04-25T02:31:51;94071.19;;;4.76;90.03
56330;BME280;42236;48.058;10.632;2023-04-25T02:34:36;94068.94;;;4.78;90.39
56330;BME280;42236;48.058;10.632;2023-04-25T02:37:22;94065.66;;;4.81;90.21
56330;BME280;42236;48.058;10.632;2023-04-25T02:40:08;94065.97;;;4.80;89.96
56330;BME280;42236;48.058;10.632;2023-04-25T02:42:54;94055.91;;;4.77;89.87
56330;BME280;42236;48.058;10.632;2023-04-25T02:45:40;94054.97;;;4.73;89.47
56330;BME280;42236;48.058;10.632;2023-04-25T02:48:26;94065.66;;;4.73;89.48
56330;BME280;42236;48.058;10.632;2023-04-25T02:51:11;94068.66;;;4.71;90.11
56330;BME280;42236;48.058;10.632;2023-04-25T02:53:58;94064.88;;;4.72;90.23
56330;BME280;42236;48.058;10.632;2023-04-25T02:56:44;94054.97;;;4.73;90.87
56330;BME280;42236;48.058;10.632;2023-04-25T02:59:29;94053.88;;;4.74;91.81
56330;BME280;42236;48.058;10.632;2023-04-25T03:02:15;94049.31;;;4.74;92.16
56330;BME280;42236;48.058;10.632;2023-04-25T03:05:01;94052.78;;;4.75;91.63
56330;BME280;42236;48.058;10.632;2023-04-25T03:07:46;94044.75;;;4.75;92.31
56330;BME280;42236;48.058;10.632;2023-04-25T03:10:32;94046.78;;;4.78;91.40
56330;BME280;42236;48.058;10.632;2023-04-25T03:13:18;94040.53;;;4.74;92.62
56330;BME280;42236;48.058;10.632;2023-04-25T03:16:04;94057.19;;;4.70;92.33
56330;BME280;42236;48.058;10.632;2023-04-25T03:18:50;94044.94;;;4.69;92.00
56330;BME280;42236;48.058;10.632;2023-04-25T03:21:36;94039.59;;;4.69;92.71
56330;BME280;42236;48.058;10.632;2023-04-25T03:24:21;94037.38;;;4.72;93.40
56330;BME280;42236;48.058;10.632;2023-04-25T03:27:07;94036.13;;;4.69;93.55
56330;BME280;42236;48.058;10.632;2023-04-25T03:29:53;94038.00;;;4.68;93.89
56330;BME280;42236;48.058;10.632;2023-04-25T03:32:39;94035.50;;;4.72;93.05
56330;BME280;42236;48.058;10.632;2023-04-25T03:35:25;94045.22;;;4.77;93.55
56330;BME280;42236;48.058;10.632;2023-04-25T03:38:10;94044.75;;;4.83;92.76
56330;BME280;42236;48.058;10.632;2023-04-25T03:40:56;94036.41;;;4.85;93.03
56330;BME280;42236;48.058;10.632;2023-04-25T03:43:42;94042.53;;;4.85;93.48
56330;BME280;42236;48.058;10.632;2023-04-25T03:46:27;94041.09;;;4.88;93.60
56330;BME280;42236;48.058;10.632;2023-04-25T03:49:13;94038.41;;;4.97;93.39
56330;BME280;42236;48.058;10.632;2023-04-25T03:51:58;94032.41;;;5.00;93.55
56330;BME280;42236;48.058;10.632;2023-04-25T03:54:45;94022.97;;;5.02;94.07
56330;BME280;42236;48.058;10.632;2023-04-25T03:57:31;94035.72;;;5.05;93.92
56330;BME280;42236;48.058;10.632;2023-04-25T04:00:16;94038.88;;;5.07;93.49
56330;BME280;42236;48.058;10.632;2023-04-25T04:03:02;94034.44;;;5.11;93.50
56330;BME280;42236;48.058;10.632;2023-04-25T04:05:48;94028.44;;;5.14;93.91
56330;BME280;42236;48.058;10.632;2023-04-25T04:08:34;94040.72;;;5.16;93.25
56330;BME280;42236;48.058;10.632;2023-04-25T04:11:19;94036.31;;;5.20;93.62
56330;BME280;42236;48.058;10.632;2023-04-25T04:14:06;94037.22;;;5.24;93.18
56330;BME280;42236;48.058;10.632;2023-04-25T04:16:52;94031.88;;;5.24;93.71
56330;BME280;42236;48.058;10.632;2023-04-25T04:19:38;94035.78;;;5.26;93.90
56330;BME280;42236;48.058;10.632;2023-04-25T04:22:24;94036.25;;;5.28;93.64
56330;BME280;42236;48.058;10.632;2023-04-25T04:25:09;94034.03;;;5.30;93.57
56330;BME280;42236;48.058;10.632;2023-04-25T04:27:57;94032.94;;;5.31;94.29
56330;BME280;42236;48.058;10.632;2023-04-25T04:30:42;94055.59;;;5.34;94.49
56330;BME280;42236;48.058;10.632;2023-04-25T04:33:31;94037.84;;;5.29;92.50
56330;BME280;42236;48.058;10.632;2023-04-25T04:36:17;94049.81;;;5.23;92.45
56330;BME280;42236;48.058;10.632;2023-04-25T04:39:05;94052.34;;;5.20;92.23
56330;BME280;42236;48.058;10.632;2023-04-25T04:41:51;94046.84;;;5.16;92.08
56330;BME280;42236;48.058;10.632;2023-04-25T04:44:37;94050.28;;;5.17;92.58
56330;BME280;42236;48.058;10.632;2023-04-25T04:47:24;94047.78;;;5.20;93.72
56330;BME280;42236;48.058;10.632;2023-04-25T04:50:11;94054.84;;;5.25;94.00
56330;BME280;42236;48.058;10.632;2023-04-25T04:52:56;94053.06;;;5.29;94.10
56330;BME280;42236;48.058;10.632;2023-04-25T04:55:42;94049.31;;;5.30;93.36
56330;BME280;42236;48.058;10.632;2023-04-25T04:58:28;94055.13;;;5.32;93.55
56330;BME280;42236;48.058;10.632;2023-04-25T05:01:15;94060.47;;;5.32;93.79
56330;BME280;42236;48.058;10.632;2023-04-25T05:04:01;94054.31;;;5.31;93.43
56330;BME280;42236;48.058;10.632;2023-04-25T05:06:48;94059.66;;;5.31;93.53
56330;BME280;42236;48.058;10.632;2023-04-25T05:09:33;94055.59;;;5.34;93.33
56330;BME280;42236;48.058;10.632;2023-04-25T05:12:19;94062.19;;;5.37;93.65
56330;BME280;42236;48.058;10.632;2023-04-25T05:15:05;94052.75;;;5.39;93.42
56330;BME280;42236;48.058;10.632;2023-04-25T05:17:51;94051.63;;;5.40;94.08
56330;BME280;42236;48.058;10.632;2023-04-25T05:20:37;94040.16;;;5.40;93.28
56330;BME280;42236;48.058;10.632;2023-04-25T05:23:22;94050.97;;;5.43;93.87
56330;BME280;42236;48.058;10.632;2023-04-25T05:26:08;94051.91;;;5.47;93.45
56330;BME280;42236;48.058;10.632;2023-04-25T05:28:59;94048.56;;;5.50;93.60
56330;BME280;42236;48.058;10.632;2023-04-25T05:31:45;94052.31;;;5.58;93.65
56330;BME280;42236;48.058;10.632;2023-04-25T05:34:30;94047.84;;;5.71;93.61
56330;BME280;42236;48.058;10.632;2023-04-25T05:37:16;94040.78;;;5.96;93.26
56330;BME280;42236;48.058;10.632;2023-04-25T05:40:02;94044.78;;;6.32;93.40
56330;BME280;42236;48.058;10.632;2023-04-25T05:42:52;94044.06;;;6.77;92.63
56330;BME280;42236;48.058;10.632;2023-04-25T05:45:37;94042.16;;;7.23;92.88
56330;BME280;42236;48.058;10.632;2023-04-25T05:48:23;94045.53;;;7.69;91.63
56330;BME280;42236;48.058;10.632;2023-04-25T05:51:09;94041.22;;;8.17;91.45
56330;BME280;42236;48.058;10.632;2023-04-25T05:53:55;94041.47;;;8.52;90.77
56330;BME280;42236;48.058;10.632;2023-04-25T05:56:40;94038.66;;;8.61;89.77
56330;BME280;42236;48.058;10.632;2023-04-25T05:59:26;94044.69;;;8.70;88.38
56330;BME280;42236;48.058;10.632;2023-04-25T06:02:12;94046.66;;;9.02;89.06
56330;BME280;42236;48.058;10.632;2023-04-25T06:04:57;94041.72;;;9.19;87.25
56330;BME280;42236;48.058;10.632;2023-04-25T06:07:43;94046.25;;;9.31;86.90
56330;BME280;42236;48.058;10.632;2023-04-25T06:10:29;94041.91;;;9.58;86.10
56330;BME280;42236;48.058;10.632;2023-04-25T06:13:14;94041.03;;;9.86;85.79
56330;BME280;42236;48.058;10.632;2023-04-25T06:16:00;94042.44;;;10.15;84.70
56330;BME280;42236;48.058;10.632;2023-04-25T06:18:46;94046.69;;;10.32;84.00
56330;BME280;42236;48.058;10.632;2023-04-25T06:21:32;94036.41;;;10.22;82.50
56330;BME280;42236;48.058;10.632;2023-04-25T06:24:17;94034.53;;;9.71;81.56
56330;BME280;42236;48.058;10.632;2023-04-25T06:27:03;94035.31;;;9.24;81.51
56330;BME280;42236;48.058;10.632;2023-04-25T06:29:49;94031.94;;;8.83;82.23
56330;BME280;42236;48.058;10.632;2023-04-25T06:32:35;94023.88;;;8.83;83.14
56330;BME280;42236;48.058;10.632;2023-04-25T06:35:20;94032.38;;;8.85;82.20
56330;BME280;42236;48.058;10.632;2023-04-25T06:38:06;94024.38;;;8.73;80.73
56330;BME280;42236;48.058;10.632;2023-04-25T06:40:51;94019.34;;;8.43;80.96
56330;BME280;42236;48.058;10.632;2023-04-25T06:43:37;94021.81;;;8.36;80.76
56330;BME280;42236;48.058;10.632;2023-04-25T06:46:23;94027.19;;;8.36;80.68
56330;BME280;42236;48.058;10.632;2023-04-25T06:49:08;94017.78;;;8.30;80.55
56330;BME280;42236;48.058;10.632;2023-04-25T06:51:54;94016.03;;;8.22;79.96
56330;BME280;42236;48.058;10.632;2023-04-25T06:54:40;94016.94;;;8.13;80.69
56330;BME280;42236;48.058;10.632;2023-04-25T06:57:25;94015.78;;;8.27;80.30
56330;BME280;42236;48.058;10.632;2023-04-25T07:00:11;94014.84;;;8.35;80.41
56330;BME280;42236;48.058;10.632;2023-04-25T07:02:57;94010.38;;;8.39;80.05
56330;BME280;42236;48.058;10.632;2023-04-25T07:05:43;94017.09;;;8.33;79.60
56330;BME280;42236;48.058;10.632;2023-04-25T07:08:29;94020.16;;;8.31;79.53
56330;BME280;42236;48.058;10.632;2023-04-25T07:11:15;94012.94;;;8.36;79.62
56330;BME280;42236;48.058;10.632;2023-04-25T07:14:01;94020.56;;;8.46;79.18
56330;BME280;42236;48.058;10.632;2023-04-25T07:16:46;94018.66;;;8.46;78.56
56330;BME280;42236;48.058;10.632;2023-04-25T07:19:32;94016.84;;;8.50;77.43
56330;BME280;42236;48.058;10.632;2023-04-25T07:22:18;94022.72;;;8.68;77.43
56330;BME280;42236;48.058;10.632;2023-04-25T07:25:04;94022.41;;;8.86;77.40
56330;BME280;42236;48.058;10.632;2023-04-25T07:27:50;94018.28;;;9.04;77.07
56330;BME280;42236;48.058;10.632;2023-04-25T07:30:36;94021.78;;;9.21;76.15
56330;BME280;42236;48.058;10.632;2023-04-25T07:33:22;94016.72;;;9.19;74.66
56330;BME280;42236;48.058;10.632;2023-04-25T07:36:08;94014.13;;;9.07;75.08
56330;BME280;42236;48.058;10.632;2023-04-25T07:38:54;94019.75;;;9.02;74.41
56330;BME280;42236;48.058;10.632;2023-04-25T07:41:40;94016.63;;;9.15;73.69
56330;BME280;42236;48.058;10.632;2023-04-25T07:44:25;94017.84;;;9.18;71.69
56330;BME280;42236;48.058;10.632;2023-04-25T07:47:11;94007.09;;;9.34;72.17
56330;BME280;42236;48.058;10.632;2023-04-25T07:49:56;94010.81;;;9.61;72.17
56330;BME280;42236;48.058;10.632;2023-04-25T07:52:43;94002.78;;;9.80;70.56
56330;BME280;42236;48.058;10.632;2023-04-25T07:55:29;94006.34;;;9.85;70.08
56330;BME280;42236;48.058;10.632;2023-04-25T07:58:15;94005.56;;;9.84;70.48
56330;BME280;42236;48.058;10.632;2023-04-25T08:01:01;94009.31;;;9.79;68.96
56330;BME280;42236;48.058;10.632;2023-04-25T08:03:46;94014.84;;;9.87;70.52
56330;BME280;42236;48.058;10.632;2023-04-25T08:06:32;94012.91;;;10.03;68.84
56330;BME280;42236;48.058;10.632;2023-04-25T08:09:18;94009.78;;;10.01;66.28
56330;BME280;42236;48.058;10.632;2023-04-25T08:12:04;94012.09;;;10.02;66.56
56330;BME280;42236;48.058;10.632;2023-04-25T08:14:50;94021.41;;;10.05;66.22
56330;BME280;42236;48.058;10.632;2023-04-25T08:17:36;94019.84;;;10.04;67.26
56330;BME280;42236;48.058;10.632;2023-04-25T08:20:21;94017.50;;;10.38;67.22
56330;BME280;42236;48.058;10.632;2023-04-25T08:23:07;94017.66;;;10.45;66.97
56330;BME280;42236;48.058;10.632;2023-04-25T08:25:53;94015.25;;;10.59;66.00
56330;BME280;42236;48.058;10.632;2023-04-25T08:28:38;94021.13;;;10.45;65.35
56330;BME280;42236;48.058;10.632;2023-04-25T08:31:24;94013.38;;;10.24;65.88
56330;BME280;42236;48.058;10.632;2023-04-25T08:34:10;94016.25;;;10.16;65.31
56330;BME280;42236;48.058;10.632;2023-04-25T08:36:56;94029.41;;;10.17;65.10
56330;BME280;42236;48.058;10.632;2023-04-25T08:39:42;94027.03;;;10.16;63.10
56330;BME280;42236;48.058;10.632;2023-04-25T08:42:28;94018.06;;;10.28;64.01
56330;BME280;42236;48.058;10.632;2023-04-25T08:45:16;94029.16;;;10.42;62.95
56330;BME280;42236;48.058;10.632;2023-04-25T08:48:03;94030.00;;;10.46;62.61
56330;BME280;42236;48.058;10.632;2023-04-25T08:50:51;94026.75;;;10.37;62.82
56330;BME280;42236;48.058;10.632;2023-04-25T08:53:38;94034.06;;;10.20;62.45
56330;BME280;42236;48.058;10.632;2023-04-25T08:56:28;94036.28;;;10.15;63.17
56330;BME280;42236;48.058;10.632;2023-04-25T08:59:14;94037.66;;;10.09;63.54
56330;BME280;42236;48.058;10.632;2023-04-25T09:02:00;94039.59;;;9.92;63.35
56330;BME280;42236;48.058;10.632;2023-04-25T09:04:46;94050.41;;;9.76;63.61
56330;BME280;42236;48.058;10.632;2023-04-25T09:07:32;94052.06;;;9.65;64.16
56330;BME280;42236;48.058;10.632;2023-04-25T09:10:18;94050.53;;;9.64;63.94
56330;BME280;42236;48.058;10.632;2023-04-25T09:13:08;94057.09;;;9.51;63.48
56330;BME280;42236;48.058;10.632;2023-04-25T09:15:56;94054.09;;;9.52;65.23
56330;BME280;42236;48.058;10.632;2023-04-25T09:18:42;94061.13;;;9.57;65.03
56330;BME280;42236;48.058;10.632;2023-04-25T09:21:28;94061.91;;;9.57;64.80
56330;BME280;42236;48.058;10.632;2023-04-25T09:24:19;94063.72;;;9.53;64.56
56330;BME280;42236;48.058;10.632;2023-04-25T09:27:13;94076.91;;;9.58;64.02
56330;BME280;42236;48.058;10.632;2023-04-25T09:30:03;94080.16;;;9.64;64.43
56330;BME280;42236;48.058;10.632;2023-04-25T09:32:49;94082.47;;;9.81;64.48
56330;BME280;42236;48.058;10.632;2023-04-25T09:35:41;94078.31;;;9.84;64.49
56330;BME280;42236;48.058;10.632;2023-04-25T09:38:30;94088.53;;;9.78;63.30
56330;BME280;42236;48.058;10.632;2023-04-25T09:41:22;94090.81;;;9.60;64.65
56330;BME280;42236;48.058;10.632;2023-04-25T09:44:12;94090.13;;;9.48;65.26
56330;BME280;42236;48.058;10.632;2023-04-25T09:46:58;94094.06;;;9.22;65.17
56330;BME280;42236;48.058;10.632;2023-04-25T09:49:44;94096.13;;;9.13;66.22
56330;BME280;42236;48.058;10.632;2023-04-25T09:52:30;94102.22;;;9.10;66.68
56330;BME280;42236;48.058;10.632;2023-04-25T09:55:16;94106.44;;;9.11;67.55
56330;BME280;42236;48.058;10.632;2023-04-25T09:58:05;94119.28;;;9.02;69.01
56330;BME280;42236;48.058;10.632;2023-04-25T10:00:52;94137.53;;;8.80;69.20
56330;BME280;42236;48.058;10.632;2023-04-25T10:03:39;94152.66;;;8.85;70.40
56330;BME280;42236;48.058;10.632;2023-04-25T10:06:26;94143.19;;;8.63;71.74
56330;BME280;42236;48.058;10.632;2023-04-25T10:09:13;94153.84;;;8.10;74.97
56330;BME280;42236;48.058;10.632;2023-04-25T10:11:59;94166.56;;;7.64;77.00
56330;BME280;42236;48.058;10.632;2023-04-25T10:14:46;94178.00;;;7.28;77.46
56330;BME280;42236;48.058;10.632;2023-04-25T10:17:32;94173.19;;;7.00;80.39
56330;BME280;42236;48.058;10.632;2023-04-25T10:20:19;94176.06;;;6.95;81.13
56330;BME280;42236;48.058;10.632;2023-04-25T10:23:13;94183.19;;;6.91;80.92
56330;BME280;42236;48.058;10.632;2023-04-25T10:26:00;94179.63;;;6.87;80.45
56330;BME280;42236;48.058;10.632;2023-04-25T10:28:57;94188.91;;;6.89;81.82
56330;BME280;42236;48.058;10.632;2023-04-25T10:31:46;94187.72;;;6.78;80.95
56330;BME280;42236;48.058;10.632;2023-04-25T10:34:43;94187.84;;;6.60;82.27
56330;BME280;42236;48.058;10.632;2023-04-25T10:37:32;94200.66;;;6.55;82.33
56330;BME280;42236;48.058;10.632;2023-04-25T10:40:22;94198.13;;;6.50;82.33
56330;BME280;42236;48.058;10.632;2023-04-25T10:43:36;94201.00;;;6.45;83.83
56330;BME280;42236;48.058;10.632;2023-04-25T10:46:27;94196.19;;;6.38;84.09
56330;BME280;42236;48.058;10.632;2023-04-25T10:52:27;94199.91;;;6.46;84.09
56330;BME280;42236;48.058;10.632;2023-04-25T10:55:13;94201.66;;;6.41;84.12
56330;BME280;42236;48.058;10.632;2023-04-25T10:58:00;94197.88;;;6.43;84.99
56330;BME280;42236;48.058;10.632;2023-04-25T11:00:46;94204.25;;;6.29;85.85
56330;BME280;42236;48.058;10.632;2023-04-25T11:03:32;94203.81;;;6.18;84.74
56330;BME280;42236;48.058;10.632;2023-04-25T11:06:23;94206.09;;;6.08;86.89
56330;BME280;42236;48.058;10.632;2023-04-25T11:09:14;94196.53;;;5.98;85.71
56330;BME280;42236;48.058;10.632;2023-04-25T11:12:00;94203.41;;;6.08;84.84
56330;BME280;42236;48.058;10.632;2023-04-25T11:14:45;94199.56;;;6.26;86.27
56330;BME280;42236;48.058;10.632;2023-04-25T11:17:31;94207.69;;;6.38;84.62
56330;BME280;42236;48.058;10.632;2023-04-25T11:20:17;94206.78;;;6.55;85.09
56330;BME280;42236;48.058;10.632;2023-04-25T11:23:04;94197.50;;;6.53;85.05
56330;BME280;42236;48.058;10.632;2023-04-25T11:25:50;94199.56;;;6.47;84.71
56330;BME280;42236;48.058;10.632;2023-04-25T11:28:38;94198.53;;;6.39;85.21
56330;BME280;42236;48.058;10.632;2023-04-25T11:31:25;94191.72;;;6.42;85.41
56330;BME280;42236;48.058;10.632;2023-04-25T11:34:11;94199.72;;;6.51;85.14
56330;BME280;42236;48.058;10.632;2023-04-25T11:36:57;94197.50;;;6.74;86.08
56330;BME280;42236;48.058;10.632;2023-04-25T11:39:44;94188.34;;;6.96;84.98
56330;BME280;42236;48.058;10.632;2023-04-25T11:42:31;94186.25;;;7.22;85.23
56330;BME280;42236;48.058;10.632;2023-04-25T11:45:17;94187.13;;;7.26;84.08
56330;BME280;42236;48.058;10.632;2023-04-25T11:48:04;94195.22;;;7.39;84.75
56330;BME280;42236;48.058;10.632;2023-04-25T11:50:49;94194.72;;;7.24;85.08
56330;BME280;42236;48.058;10.632;2023-04-25T11:53:35;94185.59;;;7.25;84.68
56330;BME280;42236;48.058;10.632;2023-04-25T11:56:22;94188.97;;;7.35;84.77
56330;BME280;42236;48.058;10.632;2023-04-25T11:59:07;94189.66;;;7.44;85.46
56330;BME280;42236;48.058;10.632;2023-04-25T12:01:53;94189.88;;;7.39;85.08
56330;BME280;42236;48.058;10.632;2023-04-25T12:04:40;94192.66;;;7.30;85.48
56330;BME280;42236;48.058;10.632;2023-04-25T12:07:29;94190.16;;;7.25;85.64
56330;BME280;42236;48.058;10.632;2023-04-25T12:10:16;94194.53;;;7.30;85.13
56330;BME280;42236;48.058;10.632;2023-04-25T12:13:17;94204.97;;;7.43;86.02
56330;BME280;42236;48.058;10.632;2023-04-25T12:16:03;94199.50;;;7.40;84.92
56330;BME280;42236;48.058;10.632;2023-04-25T12:18:51;94197.19;;;7.30;86.12
56330;BME280;42236;48.058;10.632;2023-04-25T12:21:38;94206.06;;;7.09;86.41
56330;BME280;42236;48.058;10.632;2023-04-25T12:24:25;94211.09;;;6.69;86.29
56330;BME280;42236;48.058;10.632;2023-04-25T12:27:14;94209.91;;;6.36;87.59
56330;BME280;42236;48.058;10.632;2023-04-25T12:30:04;94219.91;;;6.18;89.72
56330;BME280;42236;48.058;10.632;2023-04-25T12:32:50;94231.47;;;6.02;89.95
56330;BME280;42236;48.058;10.632;2023-04-25T12:35:36;94235.25;;;6.01;90.66
56330;BME280;42236;48.058;10.632;2023-04-25T12:38:26;94240.94;;;5.90;91.45
56330;BME280;42236;48.058;10.632;2023-04-25T12:41:12;94232.44;;;5.88;90.74
56330;BME280;42236;48.058;10.632;2023-04-25T12:43:58;94238.91;;;5.87;91.94
56330;BME280;42236;48.058;10.632;2023-04-25T12:46:43;94239.69;;;5.96;92.33
56330;BME280;42236;48.058;10.632;2023-04-25T12:49:29;94242.19;;;6.02;91.73
56330;BME280;42236;48.058;10.632;2023-04-25T12:52:15;94251.63;;;6.08;91.57
56330;BME280;42236;48.058;10.632;2023-04-25T12:55:00;94246.56;;;6.15;92.11
56330;BME280;42236;48.058;10.632;2023-04-25T12:57:49;94250.78;;;6.16;91.94
56330;BME280;42236;48.058;10.632;2023-04-25T13:00:34;94251.91;;;6.15;92.85
56330;BME280;42236;48.058;10.632;2023-04-25T13:03:20;94256.59;;;6.18;92.04
56330;BME280;42236;48.058;10.632;2023-04-25T13:06:07;94256.00;;;6.21;91.96
56330;BME280;42236;48.058;10.632;2023-04-25T13:08:53;94251.06;;;6.23;92.25
56330;BME280;42236;48.058;10.632;2023-04-25T13:11:38;94261.97;;;6.18;91.54
56330;BME280;42236;48.058;10.632;2023-04-25T13:14:24;94259.63;;;6.16;91.76
56330;BME280;42236;48.058;10.632;2023-04-25T13:17:10;94268.56;;;6.29;93.70
56330;BME280;42236;48.058;10.632;2023-04-25T13:19:55;94265.31;;;6.45;93.19
56330;BME280;42236;48.058;10.632;2023-04-25T13:22:42;94261.34;;;6.51;92.29
56330;BME280;42236;48.058;10.632;2023-04-25T13:25:29;94273.13;;;6.58;92.25
56330;BME280;42236;48.058;10.632;2023-04-25T13:28:15;94272.00;;;6.59;91.75
56330;BME280;42236;48.058;10.632;2023-04-25T13:31:01;94274.38;;;6.61;91.99
56330;BME280;42236;48.058;10.632;2023-04-25T13:33:47;94281.94;;;6.59;92.37
56330;BME280;42236;48.058;10.632;2023-04-25T13:36:32;94287.47;;;6.62;91.39
56330;BME280;42236;48.058;10.632;2023-04-25T13:39:19;94288.38;;;6.67;91.98
56330;BME280;42236;48.058;10.632;2023-04-25T13:42:05;94290.91;;;6.72;92.92
56330;BME280;42236;48.058;10.632;2023-04-25T13:44:51;94288.53;;;6.70;91.54
56330;BME280;42236;48.058;10.632;2023-04-25T13:47:36;94290.81;;;6.80;93.27
56330;BME280;42236;48.058;10.632;2023-04-25T13:50:22;94288.03;;;6.98;92.25
56330;BME280;42236;48.058;10.632;2023-04-25T13:53:08;94288.28;;;7.05;91.41
56330;BME280;42236;48.058;10.632;2023-04-25T13:55:53;94296.06;;;6.98;91.01
56330;BME280;42236;48.058;10.632;2023-04-25T13:58:39;94296.38;;;6.75;91.77
56330;BME280;42236;48.058;10.632;2023-04-25T14:01:25;94294.34;;;6.72;93.29
56330;BME280;42236;48.058;10.632;2023-04-25T14:04:12;94300.09;;;6.62;91.29
56330;BME280;42236;48.058;10.632;2023-04-25T14:06:57;94304.22;;;6.51;92.12
56330;BME280;42236;48.058;10.632;2023-04-25T14:09:43;94303.75;;;6.49;92.53
56330;BME280;42236;48.058;10.632;2023-04-25T14:12:29;94308.47;;;6.52;92.67
56330;BME280;42236;48.058;10.632;2023-04-25T14:15:15;94314.66;;;6.44;92.47
56330;BME280;42236;48.058;10.632;2023-04-25T14:18:01;94305.41;;;6.32;92.11
56330;BME280;42236;48.058;10.632;2023-04-25T14:20:47;94316.78;;;6.29;91.99
56330;BME280;42236;48.058;10.632;2023-04-25T14:23:33;94311.88;;;6.31;92.80
56330;BME280;42236;48.058;10.632;2023-04-25T14:26:18;94318.13;;;6.44;92.47
56330;BME280;42236;48.058;10.632;2023-04-25T14:29:05;94324.91;;;6.41;91.30
56330;BME280;42236;48.058;10.632;2023-04-25T14:31:54;94325.56;;;6.38;92.38
56330;BME280;42236;48.058;10.632;2023-04-25T14:34:39;94321.28;;;6.37;92.54
56330;BME280;42236;48.058;10.632;2023-04-25T14:37:26;94329.97;;;6.34;93.10
56330;BME280;42236;48.058;10.632;2023-04-25T14:40:12;94333.31;;;6.31;92.87
56330;BME280;42236;48.058;10.632;2023-04-25T14:43:00;94339.75;;;6.30;93.79
56330;BME280;42236;48.058;10.632;2023-04-25T14:45:46;94342.66;;;6.16;92.79